Time;durP1;ratioP1;P1;durP2;ratioP2;P2;SDS_P1;SDS_P2;PMS_P1;PMS_P2;Temp;Humidity;BMP_temperature;BMP_pressure;BME280_temperature;BME280_humidity;BME280_pressure;Samples;Min_cycle;Max_cycle;Signal;HPM_P1;HPM_P2
2023/05/07 00:00:15;;;;;;;16.52;12.23;;;;;;;16.72;54.95;99954.09;5051774;28;20103;-78
2023/05/07 00:02:42;;;;;;;18.75;13.13;;;;;;;16.69;55.27;99952.53;5034072;28;20611;-78
2023/05/07 00:05:09;;;;;;;18.63;12.00;;;;;;;16.67;55.15;99949.13;4749364;22;20534;-77
2023/05/07 00:07:36;;;;;;;17.17;13.00;;;;;;;16.65;55.21;99949.28;5013034;28;20055;-78
2023/05/07 00:10:04;;;;;;;16.52;12.80;;;;;;;16.61;55.10;99942.53;5031517;28;20207;-78
2023/05/07 00:12:33;;;;;;;15.95;12.07;;;;;;;16.59;55.04;99939.13;5013941;28;20115;-77
2023/05/07 00:15:02;;;;;;;16.77;12.43;;;;;;;16.57;55.61;99940.22;5030871;28;20466;-78
2023/05/07 00:17:29;;;;;;;15.88;12.48;;;;;;;16.53;55.09;99951.09;5030855;28;20563;-77
2023/05/07 00:19:56;;;;;;;18.95;12.73;;;;;;;16.50;55.09;99956.66;5031114;28;20060;-77
2023/05/07 00:22:22;;;;;;;18.05;12.43;;;;;;;16.48;55.11;99949.78;5031276;28;20414;-77
2023/05/07 00:24:48;;;;;;;18.50;12.55;;;;;;;16.44;55.37;99943.03;5013349;28;20057;-77
2023/05/07 00:27:15;;;;;;;17.83;13.18;;;;;;;16.39;55.26;99948.69;5030560;28;20080;-77
2023/05/07 00:29:42;;;;;;;16.50;12.95;;;;;;;16.35;55.23;99941.91;5031200;28;20095;-77
2023/05/07 00:32:08;;;;;;;17.75;13.38;;;;;;;16.29;55.49;99940.59;5031027;28;20223;-77
2023/05/07 00:34:35;;;;;;;16.92;12.88;;;;;;;16.26;55.32;99954.94;5030946;28;20115;-77
2023/05/07 00:37:01;;;;;;;15.95;12.98;;;;;;;16.22;55.59;99950.84;5012857;28;20383;-77
2023/05/07 00:39:31;;;;;;;20.20;13.93;;;;;;;16.18;55.46;99952.03;5031025;28;20049;-78
2023/05/07 00:41:57;;;;;;;17.48;13.55;;;;;;;16.18;55.61;99959.19;5030835;28;20095;-78
2023/05/07 00:44:24;;;;;;;15.50;13.05;;;;;;;16.13;55.83;99955.06;5031040;28;20494;-77
2023/05/07 00:46:50;;;;;;;14.85;12.40;;;;;;;16.12;55.79;99952.53;5029859;28;20333;-77
2023/05/07 00:49:18;;;;;;;17.83;13.75;;;;;;;16.08;56.03;99953.72;5030563;28;20619;-77
2023/05/07 00:51:46;;;;;;;16.63;13.02;;;;;;;16.05;56.05;99956.63;5030695;28;20045;-77
2023/05/07 00:54:13;;;;;;;16.55;13.38;;;;;;;16.01;56.00;99954.19;5030968;28;20103;-77
2023/05/07 00:56:39;;;;;;;19.08;13.57;;;;;;;16.00;55.82;99957.00;5012523;28;20076;-77
2023/05/07 00:59:06;;;;;;;15.68;13.48;;;;;;;15.97;55.93;99958.06;5030727;28;20449;-77
2023/05/07 01:01:33;;;;;;;18.58;13.95;;;;;;;15.94;56.01;99954.75;5012946;28;20054;-77
2023/05/07 01:03:59;;;;;;;17.85;13.90;;;;;;;15.90;55.98;99956.81;5030340;28;20140;-77
2023/05/07 01:06:27;;;;;;;18.13;14.93;;;;;;;15.89;55.96;99968.41;5030184;28;20049;-77
2023/05/07 01:08:56;;;;;;;16.40;13.73;;;;;;;15.85;56.12;99956.31;5030085;28;20092;-77
2023/05/07 01:11:23;;;;;;;18.02;13.68;;;;;;;15.82;56.05;99961.84;5030389;28;20057;-77
2023/05/07 01:13:50;;;;;;;19.15;14.18;;;;;;;15.76;56.43;99955.19;5012757;28;20049;-77
2023/05/07 01:16:17;;;;;;;18.88;14.02;;;;;;;15.74;56.25;99959.78;5029920;28;20103;-76
2023/05/07 01:18:44;;;;;;;18.35;13.98;;;;;;;15.71;56.44;99952.06;5029896;28;20049;-76
2023/05/07 01:21:11;;;;;;;21.00;15.45;;;;;;;15.68;56.37;99950.47;5030256;28;20503;-76
2023/05/07 01:23:39;;;;;;;19.92;15.20;;;;;;;15.66;56.46;99947.06;5030445;28;20111;-77
2023/05/07 01:26:06;;;;;;;17.00;14.10;;;;;;;15.62;56.60;99941.16;5012315;28;20057;-77
2023/05/07 01:28:32;;;;;;;21.98;15.40;;;;;;;15.59;56.53;99946.69;5029966;28;20053;-77
2023/05/07 01:31:02;;;;;;;18.33;14.57;;;;;;;15.55;57.40;99950.53;5030124;28;20095;-76
2023/05/07 01:33:31;;;;;;;19.10;14.80;;;;;;;15.55;56.89;99947.06;5012879;28;20260;-76
2023/05/07 01:36:01;;;;;;;22.80;15.18;;;;;;;15.51;56.79;99946.44;5029861;28;20460;-76
2023/05/07 01:38:28;;;;;;;19.95;15.55;;;;;;;15.48;56.72;99949.31;5012317;28;20490;-77
2023/05/07 01:40:55;;;;;;;22.33;16.05;;;;;;;15.48;56.82;99951.97;5030156;28;20449;-77
2023/05/07 01:43:22;;;;;;;22.13;15.18;;;;;;;15.44;56.67;99946.03;5031257;28;20119;-77
2023/05/07 01:45:49;;;;;;;18.83;15.02;;;;;;;15.41;56.89;99948.94;5033902;28;20053;-77
2023/05/07 01:48:17;;;;;;;21.52;15.57;;;;;;;15.38;56.79;99941.19;5033873;28;20052;-77
2023/05/07 01:50:44;;;;;;;20.67;16.52;;;;;;;15.34;56.78;99950.34;5016586;28;20056;-77
2023/05/07 01:53:11;;;;;;;23.17;17.60;;;;;;;15.30;57.15;99939.13;5033975;28;20061;-77
2023/05/07 01:55:37;;;;;;;22.85;16.83;;;;;;;15.28;57.17;99945.50;5033683;28;20049;-77
2023/05/07 01:58:04;;;;;;;23.48;17.70;;;;;;;15.26;56.96;99944.75;5015935;28;20053;-77
2023/05/07 02:00:31;;;;;;;23.48;18.20;;;;;;;15.23;57.06;99948.50;5016491;28;20077;-77
2023/05/07 02:02:58;;;;;;;25.17;17.75;;;;;;;15.20;57.16;99946.06;5033965;28;20053;-77
2023/05/07 02:05:24;;;;;;;23.77;17.45;;;;;;;15.19;57.17;99947.88;5033133;28;20057;-77
2023/05/07 02:07:51;;;;;;;24.35;18.33;;;;;;;15.17;57.37;99944.47;5033440;28;20104;-77
2023/05/07 02:10:17;;;;;;;24.27;17.70;;;;;;;15.16;57.42;99944.59;5033686;28;20085;-77
2023/05/07 02:12:44;;;;;;;24.60;18.23;;;;;;;15.13;57.47;99945.66;5033595;28;20049;-78
2023/05/07 02:15:10;;;;;;;26.38;18.60;;;;;;;15.10;57.45;99948.53;5033472;28;20050;-77
2023/05/07 02:17:58;;;;;;;23.23;17.65;;;;;;;15.03;58.43;99949.94;5033363;28;20108;-77
2023/05/07 02:20:25;;;;;;;25.85;17.90;;;;;;;15.08;57.36;99947.81;5033639;28;20056;-77
2023/05/07 02:22:51;;;;;;;27.30;19.55;;;;;;;15.04;57.39;99943.69;5033384;28;20103;-77
2023/05/07 02:25:18;;;;;;;25.80;19.42;;;;;;;15.02;57.38;99957.03;5032973;28;20049;-77
2023/05/07 02:27:44;;;;;;;27.15;19.15;;;;;;;14.98;57.57;99953.78;5033502;28;20085;-77
2023/05/07 02:30:11;;;;;;;24.85;18.50;;;;;;;14.96;57.61;99946.91;5033541;28;20045;-77
2023/05/07 02:32:38;;;;;;;26.73;19.95;;;;;;;14.94;57.49;99951.44;5014230;28;20127;-76
2023/05/07 02:35:04;;;;;;;28.15;19.85;;;;;;;14.91;57.66;99949.88;5012045;28;20072;-76
2023/05/07 02:37:31;;;;;;;26.42;18.17;;;;;;;14.88;57.72;99941.31;5013058;28;20526;-77
2023/05/07 02:39:57;;;;;;;27.85;19.45;;;;;;;14.86;57.92;99952.00;5013720;28;20042;-77
2023/05/07 02:42:23;;;;;;;28.40;20.08;;;;;;;14.84;57.97;99954.78;5013869;28;20062;-77
2023/05/07 02:44:50;;;;;;;30.80;20.95;;;;;;;14.83;58.00;99954.88;5013378;28;20057;-77
2023/05/07 02:47:16;;;;;;;30.05;20.98;;;;;;;14.81;57.93;99954.16;5013156;28;20050;-77
2023/05/07 02:49:42;;;;;;;28.80;21.13;;;;;;;14.80;57.95;99960.41;5013297;28;20491;-77
2023/05/07 02:52:09;;;;;;;28.63;21.30;;;;;;;14.78;57.99;99957.88;5012990;28;20066;-77
2023/05/07 02:54:35;;;;;;;30.65;21.67;;;;;;;14.76;58.16;99957.13;5013503;28;20479;-76
2023/05/07 02:57:03;;;;;;;28.67;21.38;;;;;;;14.74;58.19;99953.72;5011104;28;20100;-77
2023/05/07 02:59:29;;;;;;;29.33;21.20;;;;;;;14.72;58.12;99948.53;5013304;28;20053;-76
2023/05/07 03:01:55;;;;;;;29.60;21.63;;;;;;;14.70;58.12;99955.72;5012279;28;20054;-77
2023/05/07 03:04:22;;;;;;;30.85;21.77;;;;;;;14.69;58.30;99963.81;5014351;28;20056;-76
2023/05/07 03:06:48;;;;;;;30.45;20.67;;;;;;;14.68;58.58;99955.00;5031930;28;20103;-77
2023/05/07 03:09:15;;;;;;;29.05;21.60;;;;;;;14.66;58.53;99948.94;5033011;28;20049;-77
2023/05/07 03:11:41;;;;;;;31.98;22.48;;;;;;;14.66;58.47;99956.06;5015176;28;20107;-76
2023/05/07 03:14:08;;;;;;;29.50;21.98;;;;;;;14.64;58.51;99955.31;5032747;28;20115;-76
2023/05/07 03:16:35;;;;;;;31.40;23.17;;;;;;;14.63;58.69;99946.53;5014219;28;20053;-77
2023/05/07 03:19:01;;;;;;;28.60;22.77;;;;;;;14.62;58.58;99950.16;5032487;28;20506;-78
2023/05/07 03:21:28;;;;;;;35.08;24.30;;;;;;;14.62;58.76;99950.16;5014785;28;20080;-77
2023/05/07 03:23:54;;;;;;;29.38;22.25;;;;;;;14.61;58.59;99951.09;5014829;28;20119;-77
2023/05/07 03:26:21;;;;;;;31.42;22.77;;;;;;;14.60;58.65;99946.75;5032046;28;20041;-77
2023/05/07 03:28:47;;;;;;;30.00;22.27;;;;;;;14.59;58.83;99947.72;5031991;28;20456;-78
2023/05/07 03:31:13;;;;;;;31.60;23.60;;;;;;;14.58;58.73;99946.03;5032352;28;20119;-78
2023/05/07 03:33:56;;;;;;;31.52;23.27;;;;;;;14.53;59.56;99948.13;5032220;28;20064;-77
2023/05/07 03:36:24;;;;;;;31.73;22.83;;;;;;;14.56;58.63;99948.78;5014350;28;20057;-77
2023/05/07 03:38:50;;;;;;;30.40;22.88;;;;;;;14.57;58.68;99957.56;5031891;28;20057;-77
2023/05/07 03:41:16;;;;;;;30.85;23.45;;;;;;;14.55;58.81;99955.00;5014597;28;20065;-77
2023/05/07 03:43:43;;;;;;;32.03;24.00;;;;;;;14.54;58.90;99950.66;5032052;28;20046;-78
2023/05/07 03:46:09;;;;;;;32.42;24.52;;;;;;;14.53;58.72;99942.81;5031551;28;20049;-76
2023/05/07 03:48:36;;;;;;;32.30;23.88;;;;;;;14.54;58.79;99944.53;5031490;28;20046;-77
2023/05/07 03:51:03;;;;;;;32.33;25.10;;;;;;;14.53;59.01;99953.41;5032006;28;20060;-78
2023/05/07 03:53:29;;;;;;;34.13;24.80;;;;;;;14.53;58.99;99964.03;5031930;28;20084;-77
2023/05/07 03:55:56;;;;;;;30.65;23.65;;;;;;;14.51;59.04;99958.84;5031588;28;20084;-77
2023/05/07 03:58:22;;;;;;;33.45;24.85;;;;;;;14.51;59.13;99956.22;5031564;28;20057;-77
2023/05/07 04:00:49;;;;;;;34.22;24.67;;;;;;;14.50;59.28;99945.72;5031697;28;20057;-77
2023/05/07 04:03:16;;;;;;;30.75;23.70;;;;;;;14.49;59.16;99958.09;5031626;28;20056;-77
2023/05/07 04:05:42;;;;;;;35.28;26.33;;;;;;;14.49;59.02;99955.44;5030607;28;20049;-77
2023/05/07 04:08:09;;;;;;;33.35;24.90;;;;;;;14.48;59.23;99963.50;5031317;28;20104;-77
2023/05/07 04:10:35;;;;;;;37.83;25.60;;;;;;;14.45;59.18;99965.44;5031866;28;20081;-77
2023/05/07 04:13:01;;;;;;;34.03;25.10;;;;;;;14.44;59.33;99963.72;5014042;28;20110;-77
2023/05/07 04:15:28;;;;;;;36.97;25.52;;;;;;;14.43;59.22;99972.63;5030960;28;20111;-77
2023/05/07 04:17:54;;;;;;;33.47;25.42;;;;;;;14.41;59.31;99971.88;5031200;28;20057;-77
2023/05/07 04:20:21;;;;;;;31.27;24.58;;;;;;;14.42;59.33;99972.72;5031441;28;20145;-76
2023/05/07 04:22:47;;;;;;;36.75;25.80;;;;;;;14.39;59.32;99963.19;5031406;28;20053;-78
2023/05/07 04:25:16;;;;;;;36.22;26.70;;;;;;;14.39;59.99;99967.66;5030959;28;20115;-76
2023/05/07 04:27:42;;;;;;;36.72;25.23;;;;;;;14.40;59.35;99974.63;5030636;28;20058;-77
2023/05/07 04:30:09;;;;;;;33.50;25.90;;;;;;;14.38;59.49;99973.88;5031097;28;20064;-77
2023/05/07 04:32:37;;;;;;;34.15;25.27;;;;;;;14.37;59.59;99973.06;5013775;28;20057;-77
2023/05/07 04:35:04;;;;;;;33.90;25.23;;;;;;;14.35;59.67;99977.59;5030604;28;20485;-77
2023/05/07 04:37:32;;;;;;;39.17;25.85;;;;;;;14.35;59.90;99971.47;5013530;28;20061;-77
2023/05/07 04:39:58;;;;;;;36.30;26.83;;;;;;;14.33;59.76;99969.75;5013440;28;20053;-76
2023/05/07 04:42:25;;;;;;;37.70;27.15;;;;;;;14.33;59.81;99974.22;5031037;28;20388;-76
2023/05/07 04:44:53;;;;;;;35.88;26.05;;;;;;;14.32;59.84;99964.59;5012900;28;20145;-78
2023/05/07 04:47:20;;;;;;;33.42;25.27;;;;;;;14.30;59.67;99955.88;5030683;28;20095;-78
2023/05/07 04:49:46;;;;;;;35.15;25.30;;;;;;;14.31;59.72;99962.88;5030953;28;20099;-78
2023/05/07 04:52:13;;;;;;;35.65;26.20;;;;;;;14.29;59.97;99968.31;5030952;28;20057;-77
2023/05/07 04:54:39;;;;;;;37.53;26.13;;;;;;;14.28;59.91;99971.06;5030921;28;20080;-77
2023/05/07 04:57:06;;;;;;;33.42;25.35;;;;;;;14.28;59.87;99968.41;5012540;28;20057;-77
2023/05/07 04:59:33;;;;;;;38.20;25.55;;;;;;;14.27;60.15;99971.97;5030973;28;20060;-77
2023/05/07 05:01:59;;;;;;;34.00;24.75;;;;;;;14.26;59.99;99976.44;5030763;28;20053;-76
2023/05/07 05:04:26;;;;;;;32.92;26.20;;;;;;;14.28;60.09;99981.66;5030293;28;20045;-77
2023/05/07 05:06:53;;;;;;;35.03;26.25;;;;;;;14.29;60.33;99985.97;5029296;28;20115;-77
2023/05/07 05:09:19;;;;;;;31.88;24.52;;;;;;;14.31;60.26;99981.41;5030403;28;20536;-77
2023/05/07 05:11:46;;;;;;;39.03;26.25;;;;;;;14.32;60.46;99985.78;5030532;28;20441;-76
2023/05/07 05:14:12;;;;;;;34.95;25.42;;;;;;;14.36;60.36;99981.09;5030375;28;20493;-76
2023/05/07 05:16:39;;;;;;;32.78;24.40;;;;;;;14.37;60.27;99990.72;5011980;28;20107;-77
2023/05/07 05:19:05;;;;;;;32.78;24.25;;;;;;;14.40;60.41;99990.53;5029548;28;20076;-77
2023/05/07 05:21:32;;;;;;;39.28;27.52;;;;;;;14.41;60.27;99987.78;5030421;28;20053;-77
2023/05/07 05:23:58;;;;;;;33.53;24.50;;;;;;;14.43;60.26;99987.69;5030419;28;20057;-77
2023/05/07 05:26:25;;;;;;;32.45;24.83;;;;;;;14.44;60.31;99995.50;5029857;28;20042;-77
2023/05/07 05:28:52;;;;;;;34.38;24.83;;;;;;;14.46;60.54;99995.38;5030135;28;20064;-77
2023/05/07 05:31:18;;;;;;;34.33;24.92;;;;;;;14.48;60.33;100001.44;5012990;28;20045;-78
2023/05/07 05:33:44;;;;;;;42.03;25.63;;;;;;;14.51;60.38;100003.03;5030369;28;20095;-77
2023/05/07 05:36:12;;;;;;;32.95;24.88;;;;;;;14.52;60.39;100007.34;5012247;28;20597;-77
2023/05/07 05:38:40;;;;;;;33.15;23.38;;;;;;;14.52;60.15;99989.69;5029862;28;20057;-76
2023/05/07 05:41:06;;;;;;;32.70;24.73;;;;;;;14.53;60.07;99991.38;5012321;28;20053;-77
2023/05/07 05:43:33;;;;;;;34.10;24.27;;;;;;;14.54;60.17;100005.47;5012610;28;20104;-76
2023/05/07 05:46:00;;;;;;;31.80;24.73;;;;;;;14.56;60.22;100003.53;5012329;28;20054;-78
2023/05/07 05:48:28;;;;;;;34.30;23.65;;;;;;;14.55;60.33;100009.81;5012115;28;20060;-78
2023/05/07 05:50:55;;;;;;;31.27;23.58;;;;;;;14.55;60.41;100002.69;5030190;28;20053;-77
2023/05/07 05:53:21;;;;;;;30.63;23.25;;;;;;;14.57;60.55;99997.28;5030065;28;20057;-77
2023/05/07 05:55:48;;;;;;;31.77;22.95;;;;;;;14.59;60.50;99995.38;5012516;28;20049;-77
2023/05/07 05:58:15;;;;;;;29.63;22.65;;;;;;;14.60;60.65;100007.69;5030026;28;20049;-78
2023/05/07 06:00:41;;;;;;;30.90;22.63;;;;;;;14.63;60.50;99998.66;5030279;28;20051;-77
2023/05/07 06:03:08;;;;;;;30.08;22.05;;;;;;;14.65;60.70;100005.53;5030090;28;20414;-77
2023/05/07 06:05:34;;;;;;;29.20;22.50;;;;;;;14.69;60.78;100011.50;5050029;23;20056;-77
2023/05/07 06:08:01;;;;;;;36.03;23.27;;;;;;;14.73;60.87;100005.84;5049418;28;20382;-77
2023/05/07 06:10:27;;;;;;;29.63;22.55;;;;;;;14.80;61.10;100011.59;5049706;28;20552;-77
2023/05/07 06:12:54;;;;;;;28.50;22.38;;;;;;;14.87;60.95;100017.31;5032246;28;20132;-77
2023/05/07 06:15:21;;;;;;;31.77;23.85;;;;;;;14.93;60.79;100018.69;5049530;28;20068;-77
2023/05/07 06:17:48;;;;;;;29.70;21.67;;;;;;;14.98;60.84;100017.41;5049578;28;20567;-77
2023/05/07 06:20:15;;;;;;;28.73;22.10;;;;;;;15.04;60.52;100016.13;5049910;28;20056;-76
2023/05/07 06:22:42;;;;;;;30.23;22.05;;;;;;;15.09;60.46;100026.38;5032188;28;20053;-77
2023/05/07 06:25:09;;;;;;;31.55;22.77;;;;;;;15.13;60.51;100027.03;5048879;28;20110;-77
2023/05/07 06:27:35;;;;;;;31.17;21.95;;;;;;;15.15;60.46;100028.59;5049547;28;20044;-77
2023/05/07 06:30:02;;;;;;;29.67;22.00;;;;;;;15.19;60.42;100035.38;5034041;28;20056;-77
2023/05/07 06:32:31;;;;;;;32.47;21.80;;;;;;;15.21;60.35;100028.16;5053128;28;20135;-76
2023/05/07 06:34:58;;;;;;;28.58;22.00;;;;;;;15.25;60.34;100036.72;5052786;28;20048;-76
2023/05/07 06:37:25;;;;;;;29.40;21.40;;;;;;;15.28;60.26;100033.84;5051743;28;20084;-77
2023/05/07 06:39:51;;;;;;;29.40;21.45;;;;;;;15.31;60.31;100038.09;5053304;28;20445;-77
2023/05/07 06:42:19;;;;;;;30.55;22.10;;;;;;;15.34;60.34;100046.69;5052868;28;20454;-77
2023/05/07 06:44:45;;;;;;;30.63;21.13;;;;;;;15.39;60.31;100045.50;5035051;28;20060;-77
2023/05/07 06:47:12;;;;;;;27.02;20.90;;;;;;;15.43;60.39;100047.81;5052591;28;20055;-77
2023/05/07 06:49:41;;;;;;;29.65;21.70;;;;;;;15.49;60.60;100047.38;5052676;28;20694;-76
2023/05/07 06:52:08;;;;;;;30.17;21.45;;;;;;;15.57;60.56;100049.47;5052978;28;20052;-76
2023/05/07 06:54:35;;;;;;;29.50;21.58;;;;;;;15.64;60.76;100052.50;5053075;28;20049;-76
2023/05/07 06:57:01;;;;;;;27.20;20.65;;;;;;;15.72;60.85;100050.13;5052474;28;20055;-76
2023/05/07 06:59:28;;;;;;;28.38;20.13;;;;;;;15.81;60.68;100045.94;5053049;28;20063;-78
2023/05/07 07:01:54;;;;;;;30.35;20.73;;;;;;;15.90;60.72;100055.03;5052706;28;20091;-77
2023/05/07 07:04:22;;;;;;;26.92;19.90;;;;;;;15.99;60.71;100053.50;5052783;28;20048;-77
2023/05/07 07:06:49;;;;;;;25.63;20.00;;;;;;;16.08;60.38;100046.66;5067347;28;20751;-77
2023/05/07 07:09:16;;;;;;;25.23;18.92;;;;;;;16.17;60.29;100056.59;5073027;28;20044;-76
2023/05/07 07:11:43;;;;;;;27.92;18.58;;;;;;;16.25;60.03;100056.84;5072664;28;20047;-76
2023/05/07 07:14:09;;;;;;;24.98;19.13;;;;;;;16.31;59.62;100063.50;5055035;28;20400;-76
2023/05/07 07:16:36;;;;;;;27.75;19.70;;;;;;;16.37;59.65;100059.56;5071913;28;20086;-76
2023/05/07 07:19:02;;;;;;;28.02;19.00;;;;;;;16.40;59.47;100056.63;5072660;28;20076;-76
2023/05/07 07:21:30;;;;;;;23.95;18.63;;;;;;;16.46;59.21;100056.19;5054660;28;20061;-76
2023/05/07 07:23:56;;;;;;;25.92;18.63;;;;;;;16.49;59.13;100058.56;5072720;28;20060;-76
2023/05/07 07:26:23;;;;;;;24.10;18.70;;;;;;;16.51;59.04;100053.16;5054521;28;20040;-76
2023/05/07 07:28:49;;;;;;;24.30;18.55;;;;;;;16.52;58.92;100063.66;5072054;28;20053;-76
2023/05/07 07:31:16;;;;;;;24.20;18.50;;;;;;;16.54;58.88;100060.88;5054528;28;20048;-76
2023/05/07 07:33:42;;;;;;;23.13;18.45;;;;;;;16.57;59.09;100073.09;5072336;28;20063;-77
2023/05/07 07:36:09;;;;;;;24.73;17.95;;;;;;;16.59;59.27;100068.53;5072076;28;20060;-77
2023/05/07 07:38:36;;;;;;;23.10;17.23;;;;;;;16.64;59.15;100066.34;5054260;28;20056;-76
2023/05/07 07:41:02;;;;;;;24.23;17.67;;;;;;;16.71;59.32;100077.34;5071365;28;20531;-76
2023/05/07 07:43:29;;;;;;;23.38;18.58;;;;;;;16.76;59.04;100062.72;5054471;28;20078;-77
2023/05/07 07:45:56;;;;;;;22.45;17.48;;;;;;;16.85;59.14;100065.63;5071682;28;20044;-76
2023/05/07 07:48:22;;;;;;;23.30;17.60;;;;;;;16.91;58.93;100065.13;5071426;28;20049;-77
2023/05/07 07:50:50;;;;;;;23.05;16.95;;;;;;;16.97;59.12;100069.13;5072099;28;20064;-77
2023/05/07 07:53:17;;;;;;;22.05;17.30;;;;;;;17.04;58.83;100062.34;5071979;28;20044;-77
2023/05/07 07:55:44;;;;;;;23.90;17.65;;;;;;;17.09;58.33;100067.34;5053754;28;20079;-76
2023/05/07 07:58:11;;;;;;;21.83;17.35;;;;;;;17.13;58.42;100060.81;5071407;28;20528;-77
2023/05/07 08:00:37;;;;;;;24.20;17.00;;;;;;;17.15;58.19;100065.03;5071619;28;20094;-76
2023/05/07 08:03:04;;;;;;;24.02;18.48;;;;;;;17.17;57.88;100060.44;5071657;28;20566;-76
2023/05/07 08:05:31;;;;;;;24.08;17.35;;;;;;;17.18;57.97;100061.28;5071132;28;20094;-76
2023/05/07 08:07:58;;;;;;;22.15;16.80;;;;;;;17.21;58.17;100070.81;5071154;28;20055;-76
2023/05/07 08:10:25;;;;;;;22.52;17.30;;;;;;;17.22;58.02;100060.06;5071618;28;20046;-77
2023/05/07 08:12:51;;;;;;;23.02;17.33;;;;;;;17.26;57.98;100068.63;5053746;28;20048;-76
2023/05/07 08:15:18;;;;;;;21.85;16.88;;;;;;;17.30;58.07;100073.59;5071054;28;20099;-76
2023/05/07 08:17:45;;;;;;;22.77;15.63;;;;;;;17.36;58.25;100069.59;5071272;28;20489;-76
2023/05/07 08:20:11;;;;;;;22.48;16.85;;;;;;;17.43;58.12;100076.09;5071573;28;20056;-77
2023/05/07 08:22:38;;;;;;;19.70;15.80;;;;;;;17.50;57.99;100060.50;5071420;28;20052;-76
2023/05/07 08:25:05;;;;;;;19.40;16.00;;;;;;;17.57;57.89;100061.69;5053233;28;20060;-76
2023/05/07 08:27:32;;;;;;;21.80;16.13;;;;;;;17.64;57.94;100051.38;5070789;28;20044;-76
2023/05/07 08:29:58;;;;;;;21.23;16.35;;;;;;;17.70;57.87;100058.00;5071222;28;20842;-77
2023/05/07 08:32:25;;;;;;;22.10;16.52;;;;;;;17.75;57.82;100061.13;5071139;28;20481;-77
2023/05/07 08:34:51;;;;;;;22.50;16.50;;;;;;;17.79;57.69;100057.25;5070651;28;20044;-76
2023/05/07 08:37:18;;;;;;;20.13;15.88;;;;;;;17.85;57.35;100061.22;5052841;28;20057;-76
2023/05/07 08:39:44;;;;;;;18.08;14.57;;;;;;;17.91;57.32;100063.34;5071144;28;20474;-77
2023/05/07 08:42:14;;;;;;;19.70;16.10;;;;;;;17.96;57.48;100063.84;5071016;28;20045;-76
2023/05/07 08:44:45;;;;;;;21.15;15.48;;;;;;;18.03;57.55;100069.50;5070775;28;20059;-78
2023/05/07 08:47:12;;;;;;;18.08;15.07;;;;;;;18.13;57.51;100069.59;5052854;28;20101;-76
2023/05/07 08:49:38;;;;;;;19.63;15.30;;;;;;;18.22;57.52;100070.66;5071003;28;20052;-77
2023/05/07 08:52:06;;;;;;;19.25;14.57;;;;;;;18.31;56.70;100079.66;5069473;28;20055;-77
2023/05/07 08:54:36;;;;;;;17.13;14.20;;;;;;;18.38;56.79;100080.00;5070898;28;20118;-76
2023/05/07 08:57:03;;;;;;;19.27;14.82;;;;;;;18.46;56.44;100082.84;5069942;28;20059;-76
2023/05/07 08:59:30;;;;;;;20.20;14.93;;;;;;;18.53;56.52;100084.03;5070935;28;20048;-77
2023/05/07 09:01:56;;;;;;;20.50;15.13;;;;;;;18.60;56.45;100085.19;5070686;28;20445;-77
2023/05/07 09:04:23;;;;;;;22.15;14.57;;;;;;;18.67;56.46;100081.97;5070710;28;20551;-77
2023/05/07 09:06:51;;;;;;;18.85;14.85;;;;;;;18.72;56.28;100085.09;5069151;28;20393;-76
2023/05/07 09:09:20;;;;;;;20.05;14.93;;;;;;;18.78;56.12;100078.38;5069639;28;20052;-76
2023/05/07 09:11:47;;;;;;;16.40;13.68;;;;;;;18.81;55.46;100086.13;5069938;28;20412;-76
2023/05/07 09:14:13;;;;;;;19.60;15.38;;;;;;;18.83;55.49;100079.69;5069905;28;20083;-76
2023/05/07 09:16:40;;;;;;;18.13;14.27;;;;;;;18.85;55.42;100083.06;5069093;28;20067;-77
2023/05/07 09:19:07;;;;;;;19.38;14.65;;;;;;;18.86;55.43;100081.22;5069674;28;20783;-76
2023/05/07 09:21:33;;;;;;;17.80;13.57;;;;;;;18.87;55.26;100089.09;5069635;28;20106;-76
2023/05/07 09:24:00;;;;;;;17.38;14.45;;;;;;;18.91;55.53;100083.50;5069521;28;20052;-77
2023/05/07 09:26:27;;;;;;;17.73;13.75;;;;;;;18.95;56.00;100087.59;5069419;28;20106;-77
2023/05/07 09:28:54;;;;;;;17.83;14.48;;;;;;;19.01;55.60;100092.38;5069060;28;20048;-76
2023/05/07 09:31:23;;;;;;;17.77;14.45;;;;;;;19.10;55.69;100090.78;5069698;28;20377;-77
2023/05/07 09:33:50;;;;;;;19.38;13.48;;;;;;;19.20;56.42;100090.78;5069449;28;20504;-76
2023/05/07 09:36:17;;;;;;;18.38;13.13;;;;;;;19.33;56.04;100082.56;5069092;28;20040;-76
2023/05/07 09:38:45;;;;;;;15.00;12.98;;;;;;;19.46;55.47;100079.63;5068945;28;20052;-76
2023/05/07 09:41:12;;;;;;;17.70;13.40;;;;;;;19.58;55.63;100080.38;5069633;28;20048;-77
2023/05/07 09:43:40;;;;;;;17.85;13.20;;;;;;;19.69;55.03;100074.06;5069820;28;20441;-77
2023/05/07 09:46:13;;;;;;;15.25;13.55;;;;;;;19.74;54.66;100083.31;5069157;28;20057;-76
2023/05/07 09:48:42;;;;;;;19.52;13.60;;;;;;;19.82;54.72;100084.44;5051149;28;20404;-77
2023/05/07 09:51:18;;;;;;;19.35;14.60;;;;;;;19.87;54.22;100083.06;5069223;28;20082;-77
2023/05/07 09:53:46;;;;;;;16.48;13.48;;;;;;;19.96;54.32;100091.22;5068206;28;20056;-77
2023/05/07 09:56:15;;;;;;;14.70;12.27;;;;;;;20.01;54.80;100084.50;5069023;28;20049;-77
2023/05/07 09:58:43;;;;;;;15.95;11.85;;;;;;;20.11;54.80;100086.31;5068848;28;20134;-77
2023/05/07 10:01:12;;;;;;;15.88;12.65;;;;;;;20.22;54.38;100085.31;5069178;28;20485;-77
2023/05/07 10:03:41;;;;;;;14.00;12.50;;;;;;;20.35;54.99;100096.56;5069153;28;20048;-77
2023/05/07 10:06:12;;;;;;;14.57;12.83;;;;;;;20.49;54.81;100097.09;5032184;28;1158965;-77
2023/05/07 10:08:40;;;;;;;13.82;11.75;;;;;;;20.65;54.28;100094.66;5055488;28;20143;-77
2023/05/07 10:11:06;;;;;;;14.00;11.93;;;;;;;20.77;54.83;100095.31;5073959;28;20062;-77
2023/05/07 10:13:37;;;;;;;16.58;12.65;;;;;;;20.92;54.06;100089.53;5073957;28;20048;-77
2023/05/07 10:16:05;;;;;;;14.75;11.35;;;;;;;21.04;53.61;100091.03;5073304;28;20048;-77
2023/05/07 10:18:32;;;;;;;15.00;11.88;;;;;;;21.15;53.29;100084.63;5073298;28;20098;-77
2023/05/07 10:21:15;;;;;;;14.00;11.75;;;;;;;21.23;52.86;100086.56;5073782;28;20058;-78
2023/05/07 10:23:45;;;;;;;13.52;11.75;;;;;;;21.33;52.56;100097.22;5073825;28;20087;-77
2023/05/07 10:26:14;;;;;;;13.93;11.05;;;;;;;21.43;52.85;100095.34;5073223;28;20052;-76
2023/05/07 10:28:44;;;;;;;14.20;11.05;;;;;;;21.53;52.44;100092.56;5072988;28;20135;-77
2023/05/07 10:31:34;;;;;;;13.15;10.88;;;;;;;21.63;52.67;100084.47;5073464;28;20442;-77
2023/05/07 10:34:06;;;;;;;13.80;11.27;;;;;;;21.80;52.34;100095.41;5032670;28;20056;-78
2023/05/07 10:36:34;;;;;;;14.68;11.30;;;;;;;21.92;52.43;100079.91;5072781;28;20106;-77
2023/05/07 10:39:05;;;;;;;13.52;11.48;;;;;;;22.05;52.17;100084.91;5073453;28;20086;-77
2023/05/07 10:41:32;;;;;;;13.57;11.35;;;;;;;22.18;52.35;100093.38;5073459;28;20045;-78
2023/05/07 10:44:01;;;;;;;12.20;10.40;;;;;;;22.30;51.88;100093.97;5073530;28;20059;-77
2023/05/07 10:46:27;;;;;;;11.32;9.93;;;;;;;22.43;51.82;100096.22;5072955;28;20044;-77
2023/05/07 10:49:00;;;;;;;11.15;9.93;;;;;;;22.56;52.19;100095.00;5072767;28;20098;-77
2023/05/07 10:51:28;;;;;;;10.65;9.48;;;;;;;22.74;51.60;100101.19;5073057;28;20053;-77
2023/05/07 10:54:10;;;;;;;12.48;10.02;;;;;;;22.92;51.53;100094.91;5055530;28;20144;-77
2023/05/07 10:56:42;;;;;;;11.02;9.80;;;;;;;23.21;51.03;100093.66;5072084;28;20140;-77
2023/05/07 10:59:26;;;;;;;10.48;9.32;;;;;;;23.40;50.05;100097.94;5073084;28;20562;-77
2023/05/07 11:01:55;;;;;;;11.57;10.02;;;;;;;23.58;49.33;100086.22;5072900;28;20048;-78
2023/05/07 11:04:27;;;;;;;10.77;9.38;;;;;;;23.66;49.46;100088.94;5072873;28;20045;-78
2023/05/07 11:07:26;;;;;;;10.93;8.40;;;;;;;23.69;49.27;100091.31;5054294;28;20147;-77
2023/05/07 11:09:52;;;;;;;10.00;9.00;;;;;;;23.87;49.00;100086.78;5072654;28;20049;-78
2023/05/07 11:12:43;;;;;;;11.75;9.50;;;;;;;23.95;48.38;100089.47;5072723;28;20048;-77
2023/05/07 11:15:10;;;;;;;9.80;8.82;;;;;;;24.12;48.61;100084.13;5072090;28;20060;-77